sensor_id;sensor_type;location;lat;lon;timestamp;P1;durP1;ratioP1;P2;durP2;ratioP2
14470;SDS011;7321;50.802;4.336;2024-03-22T00:02:07;39.30;;;29.67;;
14470;SDS011;7321;50.802;4.336;2024-03-22T00:04:36;38.10;;;30.57;;
14470;SDS011;7321;50.802;4.336;2024-03-22T00:07:02;41.37;;;29.83;;
14470;SDS011;7321;50.802;4.336;2024-03-22T00:09:29;39.40;;;30.40;;
14470;SDS011;7321;50.802;4.336;2024-03-22T00:11:55;38.87;;;30.07;;
14470;SDS011;7321;50.802;4.336;2024-03-22T00:14:21;38.20;;;29.17;;
14470;SDS011;7321;50.802;4.336;2024-03-22T00:16:47;38.30;;;29.97;;
14470;SDS011;7321;50.802;4.336;2024-03-22T00:19:13;39.33;;;30.03;;
14470;SDS011;7321;50.802;4.336;2024-03-22T00:21:39;38.23;;;30.07;;
14470;SDS011;7321;50.802;4.336;2024-03-22T00:24:05;42.40;;;30.73;;
14470;SDS011;7321;50.802;4.336;2024-03-22T00:26:31;39.87;;;30.00;;
14470;SDS011;7321;50.802;4.336;2024-03-22T00:28:56;35.50;;;28.73;;
14470;SDS011;7321;50.802;4.336;2024-03-22T00:31:25;34.37;;;27.53;;
14470;SDS011;7321;50.802;4.336;2024-03-22T00:33:51;36.97;;;28.43;;
14470;SDS011;7321;50.802;4.336;2024-03-22T00:36:17;33.73;;;28.20;;
14470;SDS011;7321;50.802;4.336;2024-03-22T00:38:43;35.87;;;26.57;;
14470;SDS011;7321;50.802;4.336;2024-03-22T00:41:08;37.20;;;28.00;;
14470;SDS011;7321;50.802;4.336;2024-03-22T00:43:34;36.73;;;27.53;;
14470;SDS011;7321;50.802;4.336;2024-03-22T00:46:00;33.67;;;27.03;;
14470;SDS011;7321;50.802;4.336;2024-03-22T00:48:27;37.70;;;27.30;;
14470;SDS011;7321;50.802;4.336;2024-03-22T00:50:54;39.53;;;27.70;;
14470;SDS011;7321;50.802;4.336;2024-03-22T00:53:20;35.60;;;28.80;;
14470;SDS011;7321;50.802;4.336;2024-03-22T00:55:46;37.30;;;28.13;;
14470;SDS011;7321;50.802;4.336;2024-03-22T00:58:17;36.23;;;27.33;;
14470;SDS011;7321;50.802;4.336;2024-03-22T01:00:44;34.43;;;27.07;;
14470;SDS011;7321;50.802;4.336;2024-03-22T01:03:10;35.07;;;27.10;;
14470;SDS011;7321;50.802;4.336;2024-03-22T01:05:36;34.50;;;28.50;;
14470;SDS011;7321;50.802;4.336;2024-03-22T01:08:02;37.20;;;28.30;;
14470;SDS011;7321;50.802;4.336;2024-03-22T01:10:28;31.60;;;26.27;;
14470;SDS011;7321;50.802;4.336;2024-03-22T01:12:53;38.97;;;27.37;;
14470;SDS011;7321;50.802;4.336;2024-03-22T01:15:19;35.60;;;27.40;;
14470;SDS011;7321;50.802;4.336;2024-03-22T01:17:45;39.40;;;28.00;;
14470;SDS011;7321;50.802;4.336;2024-03-22T01:20:11;36.83;;;28.60;;
14470;SDS011;7321;50.802;4.336;2024-03-22T01:22:37;38.37;;;28.47;;
14470;SDS011;7321;50.802;4.336;2024-03-22T01:25:02;35.47;;;28.53;;
14470;SDS011;7321;50.802;4.336;2024-03-22T01:27:28;43.47;;;29.60;;
14470;SDS011;7321;50.802;4.336;2024-03-22T01:29:54;39.67;;;27.73;;
14470;SDS011;7321;50.802;4.336;2024-03-22T01:32:20;35.17;;;27.33;;
14470;SDS011;7321;50.802;4.336;2024-03-22T01:34:46;36.20;;;28.33;;
14470;SDS011;7321;50.802;4.336;2024-03-22T01:37:12;36.23;;;27.07;;
14470;SDS011;7321;50.802;4.336;2024-03-22T01:39:38;37.97;;;27.97;;
14470;SDS011;7321;50.802;4.336;2024-03-22T01:42:03;37.80;;;28.20;;
14470;SDS011;7321;50.802;4.336;2024-03-22T01:44:31;39.10;;;28.83;;
14470;SDS011;7321;50.802;4.336;2024-03-22T01:46:57;41.10;;;30.13;;
14470;SDS011;7321;50.802;4.336;2024-03-22T01:49:25;38.93;;;28.37;;
14470;SDS011;7321;50.802;4.336;2024-03-22T01:51:52;37.43;;;28.93;;
14470;SDS011;7321;50.802;4.336;2024-03-22T01:54:19;40.10;;;29.67;;
14470;SDS011;7321;50.802;4.336;2024-03-22T01:56:46;41.93;;;29.77;;
14470;SDS011;7321;50.802;4.336;2024-03-22T01:59:12;38.67;;;28.77;;
14470;SDS011;7321;50.802;4.336;2024-03-22T02:01:38;34.90;;;27.40;;
14470;SDS011;7321;50.802;4.336;2024-03-22T02:04:05;40.23;;;29.80;;
14470;SDS011;7321;50.802;4.336;2024-03-22T02:06:31;39.13;;;30.17;;
14470;SDS011;7321;50.802;4.336;2024-03-22T02:08:57;34.97;;;27.67;;
14470;SDS011;7321;50.802;4.336;2024-03-22T02:11:24;39.20;;;28.90;;
14470;SDS011;7321;50.802;4.336;2024-03-22T02:13:51;38.37;;;28.20;;
14470;SDS011;7321;50.802;4.336;2024-03-22T02:16:17;37.17;;;28.10;;
14470;SDS011;7321;50.802;4.336;2024-03-22T02:18:43;36.87;;;28.37;;
14470;SDS011;7321;50.802;4.336;2024-03-22T02:21:12;36.57;;;27.90;;
14470;SDS011;7321;50.802;4.336;2024-03-22T02:23:38;39.00;;;28.43;;
14470;SDS011;7321;50.802;4.336;2024-03-22T02:26:05;34.67;;;26.60;;
14470;SDS011;7321;50.802;4.336;2024-03-22T02:28:32;35.50;;;28.03;;
14470;SDS011;7321;50.802;4.336;2024-03-22T02:30:59;36.87;;;27.87;;
14470;SDS011;7321;50.802;4.336;2024-03-22T02:33:25;36.03;;;27.33;;
14470;SDS011;7321;50.802;4.336;2024-03-22T02:35:51;36.70;;;26.57;;
14470;SDS011;7321;50.802;4.336;2024-03-22T02:38:17;34.50;;;27.60;;
14470;SDS011;7321;50.802;4.336;2024-03-22T02:40:44;38.07;;;27.40;;
14470;SDS011;7321;50.802;4.336;2024-03-22T02:43:10;36.77;;;27.27;;
14470;SDS011;7321;50.802;4.336;2024-03-22T02:45:36;36.67;;;26.63;;
14470;SDS011;7321;50.802;4.336;2024-03-22T02:48:02;39.00;;;27.37;;
14470;SDS011;7321;50.802;4.336;2024-03-22T02:50:32;34.47;;;27.00;;
14470;SDS011;7321;50.802;4.336;2024-03-22T02:52:58;37.93;;;27.03;;
14470;SDS011;7321;50.802;4.336;2024-03-22T02:55:24;32.63;;;25.27;;
14470;SDS011;7321;50.802;4.336;2024-03-22T02:57:50;35.33;;;26.60;;
14470;SDS011;7321;50.802;4.336;2024-03-22T03:00:16;31.03;;;24.63;;
14470;SDS011;7321;50.802;4.336;2024-03-22T03:02:43;35.90;;;24.20;;
14470;SDS011;7321;50.802;4.336;2024-03-22T03:05:09;32.33;;;24.33;;
14470;SDS011;7321;50.802;4.336;2024-03-22T03:07:35;31.77;;;24.47;;
14470;SDS011;7321;50.802;4.336;2024-03-22T03:10:01;33.00;;;24.30;;
14470;SDS011;7321;50.802;4.336;2024-03-22T03:12:27;32.80;;;23.77;;
14470;SDS011;7321;50.802;4.336;2024-03-22T03:14:53;34.10;;;22.83;;
14470;SDS011;7321;50.802;4.336;2024-03-22T03:17:19;34.10;;;24.27;;
14470;SDS011;7321;50.802;4.336;2024-03-22T03:19:44;30.70;;;23.97;;
14470;SDS011;7321;50.802;4.336;2024-03-22T03:22:10;31.70;;;23.90;;
14470;SDS011;7321;50.802;4.336;2024-03-22T03:24:36;30.47;;;23.70;;
14470;SDS011;7321;50.802;4.336;2024-03-22T03:27:02;30.13;;;23.17;;
14470;SDS011;7321;50.802;4.336;2024-03-22T03:29:28;29.87;;;22.50;;
14470;SDS011;7321;50.802;4.336;2024-03-22T03:31:53;31.80;;;22.30;;
14470;SDS011;7321;50.802;4.336;2024-03-22T03:34:19;28.90;;;22.70;;
14470;SDS011;7321;50.802;4.336;2024-03-22T03:36:46;28.43;;;21.93;;
14470;SDS011;7321;50.802;4.336;2024-03-22T03:39:12;30.70;;;22.00;;
14470;SDS011;7321;50.802;4.336;2024-03-22T03:41:37;28.97;;;21.63;;
14470;SDS011;7321;50.802;4.336;2024-03-22T03:44:03;25.47;;;20.60;;
14470;SDS011;7321;50.802;4.336;2024-03-22T03:46:29;25.80;;;20.43;;
14470;SDS011;7321;50.802;4.336;2024-03-22T03:48:55;27.57;;;19.63;;
14470;SDS011;7321;50.802;4.336;2024-03-22T03:51:21;24.73;;;20.33;;
14470;SDS011;7321;50.802;4.336;2024-03-22T03:53:47;27.50;;;20.90;;
14470;SDS011;7321;50.802;4.336;2024-03-22T03:56:12;28.23;;;20.23;;
14470;SDS011;7321;50.802;4.336;2024-03-22T03:58:38;27.17;;;20.10;;
14470;SDS011;7321;50.802;4.336;2024-03-22T04:01:05;25.03;;;19.63;;
14470;SDS011;7321;50.802;4.336;2024-03-22T04:03:34;24.97;;;19.07;;
14470;SDS011;7321;50.802;4.336;2024-03-22T04:06:01;27.00;;;20.60;;
14470;SDS011;7321;50.802;4.336;2024-03-22T04:08:27;27.23;;;20.63;;
14470;SDS011;7321;50.802;4.336;2024-03-22T04:10:56;27.73;;;20.23;;
14470;SDS011;7321;50.802;4.336;2024-03-22T04:13:23;25.20;;;18.80;;
14470;SDS011;7321;50.802;4.336;2024-03-22T04:15:49;25.03;;;18.97;;
14470;SDS011;7321;50.802;4.336;2024-03-22T04:18:15;24.47;;;18.70;;
14470;SDS011;7321;50.802;4.336;2024-03-22T04:20:41;22.63;;;17.57;;
14470;SDS011;7321;50.802;4.336;2024-03-22T04:23:08;22.47;;;18.10;;
14470;SDS011;7321;50.802;4.336;2024-03-22T04:25:34;23.10;;;18.10;;
14470;SDS011;7321;50.802;4.336;2024-03-22T04:27:59;30.90;;;18.93;;
14470;SDS011;7321;50.802;4.336;2024-03-22T04:30:25;22.60;;;17.60;;
14470;SDS011;7321;50.802;4.336;2024-03-22T04:32:51;22.53;;;16.40;;
14470;SDS011;7321;50.802;4.336;2024-03-22T04:35:17;20.73;;;16.80;;
14470;SDS011;7321;50.802;4.336;2024-03-22T04:37:43;22.47;;;17.33;;
14470;SDS011;7321;50.802;4.336;2024-03-22T04:40:09;22.63;;;17.20;;
14470;SDS011;7321;50.802;4.336;2024-03-22T04:42:35;23.10;;;17.77;;
14470;SDS011;7321;50.802;4.336;2024-03-22T04:45:01;25.73;;;19.07;;
14470;SDS011;7321;50.802;4.336;2024-03-22T04:47:27;23.57;;;17.73;;
14470;SDS011;7321;50.802;4.336;2024-03-22T04:49:53;24.53;;;18.07;;
14470;SDS011;7321;50.802;4.336;2024-03-22T04:52:18;23.13;;;17.63;;
14470;SDS011;7321;50.802;4.336;2024-03-22T04:54:44;23.63;;;17.83;;
14470;SDS011;7321;50.802;4.336;2024-03-22T04:57:10;25.73;;;18.37;;
14470;SDS011;7321;50.802;4.336;2024-03-22T04:59:36;23.77;;;16.97;;
14470;SDS011;7321;50.802;4.336;2024-03-22T05:02:02;23.97;;;17.23;;
14470;SDS011;7321;50.802;4.336;2024-03-22T05:04:28;22.80;;;17.53;;
14470;SDS011;7321;50.802;4.336;2024-03-22T05:06:54;22.67;;;16.80;;
14470;SDS011;7321;50.802;4.336;2024-03-22T05:09:19;24.40;;;17.17;;
14470;SDS011;7321;50.802;4.336;2024-03-22T05:11:45;20.77;;;16.53;;
14470;SDS011;7321;50.802;4.336;2024-03-22T05:14:15;24.13;;;17.07;;
14470;SDS011;7321;50.802;4.336;2024-03-22T05:16:41;23.20;;;16.97;;
14470;SDS011;7321;50.802;4.336;2024-03-22T05:19:07;21.27;;;16.33;;
14470;SDS011;7321;50.802;4.336;2024-03-22T05:21:33;23.43;;;17.17;;
14470;SDS011;7321;50.802;4.336;2024-03-22T05:23:59;23.03;;;17.23;;
14470;SDS011;7321;50.802;4.336;2024-03-22T05:26:25;23.10;;;17.70;;
14470;SDS011;7321;50.802;4.336;2024-03-22T05:28:51;20.50;;;16.47;;
14470;SDS011;7321;50.802;4.336;2024-03-22T05:31:17;25.47;;;17.77;;
14470;SDS011;7321;50.802;4.336;2024-03-22T05:33:43;23.80;;;17.90;;
14470;SDS011;7321;50.802;4.336;2024-03-22T05:36:09;23.47;;;17.30;;
14470;SDS011;7321;50.802;4.336;2024-03-22T05:38:35;23.87;;;17.23;;
14470;SDS011;7321;50.802;4.336;2024-03-22T05:41:04;21.53;;;16.70;;
14470;SDS011;7321;50.802;4.336;2024-03-22T05:43:30;22.93;;;17.37;;
14470;SDS011;7321;50.802;4.336;2024-03-22T05:45:56;22.23;;;17.07;;
14470;SDS011;7321;50.802;4.336;2024-03-22T05:48:21;25.60;;;17.03;;
14470;SDS011;7321;50.802;4.336;2024-03-22T05:50:47;20.27;;;15.20;;
14470;SDS011;7321;50.802;4.336;2024-03-22T05:53:13;20.67;;;14.53;;
14470;SDS011;7321;50.802;4.336;2024-03-22T05:55:39;18.93;;;14.67;;
14470;SDS011;7321;50.802;4.336;2024-03-22T05:58:04;21.00;;;15.53;;
14470;SDS011;7321;50.802;4.336;2024-03-22T06:00:30;19.10;;;14.23;;
14470;SDS011;7321;50.802;4.336;2024-03-22T06:02:56;20.63;;;15.07;;
14470;SDS011;7321;50.802;4.336;2024-03-22T06:05:22;16.13;;;12.97;;
14470;SDS011;7321;50.802;4.336;2024-03-22T06:07:48;17.93;;;13.80;;
14470;SDS011;7321;50.802;4.336;2024-03-22T06:10:14;19.20;;;14.77;;
14470;SDS011;7321;50.802;4.336;2024-03-22T06:12:40;18.10;;;14.53;;
14470;SDS011;7321;50.802;4.336;2024-03-22T06:15:06;20.10;;;15.50;;
14470;SDS011;7321;50.802;4.336;2024-03-22T06:17:32;22.20;;;14.70;;
14470;SDS011;7321;50.802;4.336;2024-03-22T06:19:59;18.13;;;14.60;;
14470;SDS011;7321;50.802;4.336;2024-03-22T06:22:25;19.23;;;15.83;;
14470;SDS011;7321;50.802;4.336;2024-03-22T06:24:52;23.60;;;15.83;;
14470;SDS011;7321;50.802;4.336;2024-03-22T06:27:19;20.33;;;14.43;;
14470;SDS011;7321;50.802;4.336;2024-03-22T06:29:45;17.90;;;14.53;;
14470;SDS011;7321;50.802;4.336;2024-03-22T06:32:13;18.53;;;14.10;;
14470;SDS011;7321;50.802;4.336;2024-03-22T06:34:42;19.23;;;14.40;;
14470;SDS011;7321;50.802;4.336;2024-03-22T06:37:22;19.20;;;14.20;;
14470;SDS011;7321;50.802;4.336;2024-03-22T06:39:51;18.83;;;13.77;;
14470;SDS011;7321;50.802;4.336;2024-03-22T06:42:26;19.23;;;13.33;;
14470;SDS011;7321;50.802;4.336;2024-03-22T06:44:52;19.77;;;13.73;;
14470;SDS011;7321;50.802;4.336;2024-03-22T06:47:18;21.43;;;13.63;;
14470;SDS011;7321;50.802;4.336;2024-03-22T06:49:46;21.43;;;14.10;;
14470;SDS011;7321;50.802;4.336;2024-03-22T06:52:11;21.53;;;14.07;;
14470;SDS011;7321;50.802;4.336;2024-03-22T06:54:37;22.57;;;14.13;;
14470;SDS011;7321;50.802;4.336;2024-03-22T06:57:03;22.77;;;14.67;;
14470;SDS011;7321;50.802;4.336;2024-03-22T06:59:29;21.00;;;14.07;;
14470;SDS011;7321;50.802;4.336;2024-03-22T07:01:55;20.43;;;14.10;;
14470;SDS011;7321;50.802;4.336;2024-03-22T07:04:20;21.23;;;13.77;;
14470;SDS011;7321;50.802;4.336;2024-03-22T07:06:46;20.83;;;13.90;;
14470;SDS011;7321;50.802;4.336;2024-03-22T07:09:12;25.30;;;17.13;;
14470;SDS011;7321;50.802;4.336;2024-03-22T07:11:41;21.93;;;14.77;;
14470;SDS011;7321;50.802;4.336;2024-03-22T07:14:07;21.27;;;15.00;;
14470;SDS011;7321;50.802;4.336;2024-03-22T07:16:33;23.43;;;15.03;;
14470;SDS011;7321;50.802;4.336;2024-03-22T07:18:59;23.60;;;14.47;;
14470;SDS011;7321;50.802;4.336;2024-03-22T07:21:25;24.53;;;14.50;;
14470;SDS011;7321;50.802;4.336;2024-03-22T07:23:51;24.77;;;14.80;;
14470;SDS011;7321;50.802;4.336;2024-03-22T07:26:16;25.33;;;15.97;;
14470;SDS011;7321;50.802;4.336;2024-03-22T07:28:42;25.20;;;15.10;;
14470;SDS011;7321;50.802;4.336;2024-03-22T07:31:08;23.37;;;14.70;;
14470;SDS011;7321;50.802;4.336;2024-03-22T07:33:34;25.67;;;15.63;;
14470;SDS011;7321;50.802;4.336;2024-03-22T07:36:03;21.60;;;14.90;;
14470;SDS011;7321;50.802;4.336;2024-03-22T07:38:29;23.67;;;15.27;;
14470;SDS011;7321;50.802;4.336;2024-03-22T07:40:55;20.80;;;14.07;;
14470;SDS011;7321;50.802;4.336;2024-03-22T07:43:21;21.77;;;15.10;;
14470;SDS011;7321;50.802;4.336;2024-03-22T07:45:47;22.17;;;14.83;;
14470;SDS011;7321;50.802;4.336;2024-03-22T07:48:13;25.97;;;17.27;;
14470;SDS011;7321;50.802;4.336;2024-03-22T07:50:39;24.10;;;15.20;;
14470;SDS011;7321;50.802;4.336;2024-03-22T07:53:05;21.17;;;14.33;;
14470;SDS011;7321;50.802;4.336;2024-03-22T07:55:30;19.90;;;13.83;;
14470;SDS011;7321;50.802;4.336;2024-03-22T07:57:56;18.57;;;12.97;;
14470;SDS011;7321;50.802;4.336;2024-03-22T08:00:23;20.07;;;12.87;;
14470;SDS011;7321;50.802;4.336;2024-03-22T08:02:52;19.07;;;12.43;;
14470;SDS011;7321;50.802;4.336;2024-03-22T08:05:18;16.03;;;12.43;;
14470;SDS011;7321;50.802;4.336;2024-03-22T08:07:44;18.07;;;13.23;;
14470;SDS011;7321;50.802;4.336;2024-03-22T08:10:10;18.20;;;12.23;;
14470;SDS011;7321;50.802;4.336;2024-03-22T08:12:36;23.07;;;14.83;;
14470;SDS011;7321;50.802;4.336;2024-03-22T08:15:02;21.93;;;15.07;;
14470;SDS011;7321;50.802;4.336;2024-03-22T08:17:28;19.60;;;14.77;;
14470;SDS011;7321;50.802;4.336;2024-03-22T08:19:54;25.63;;;16.93;;
14470;SDS011;7321;50.802;4.336;2024-03-22T08:22:20;24.43;;;16.97;;
14470;SDS011;7321;50.802;4.336;2024-03-22T08:24:46;22.17;;;16.83;;
14470;SDS011;7321;50.802;4.336;2024-03-22T08:27:12;24.10;;;17.60;;
14470;SDS011;7321;50.802;4.336;2024-03-22T08:29:37;20.23;;;15.93;;
14470;SDS011;7321;50.802;4.336;2024-03-22T08:32:05;20.23;;;15.87;;
14470;SDS011;7321;50.802;4.336;2024-03-22T08:34:31;23.40;;;16.63;;
14470;SDS011;7321;50.802;4.336;2024-03-22T08:37:00;20.70;;;15.77;;
14470;SDS011;7321;50.802;4.336;2024-03-22T08:39:25;22.60;;;15.90;;
14470;SDS011;7321;50.802;4.336;2024-03-22T08:41:51;19.13;;;14.63;;
14470;SDS011;7321;50.802;4.336;2024-03-22T08:44:17;24.83;;;16.63;;
14470;SDS011;7321;50.802;4.336;2024-03-22T08:46:43;19.27;;;15.63;;
14470;SDS011;7321;50.802;4.336;2024-03-22T08:49:09;19.60;;;15.00;;
14470;SDS011;7321;50.802;4.336;2024-03-22T08:51:36;19.27;;;15.00;;
14470;SDS011;7321;50.802;4.336;2024-03-22T08:54:02;24.93;;;14.70;;
14470;SDS011;7321;50.802;4.336;2024-03-22T08:56:29;21.23;;;14.60;;
14470;SDS011;7321;50.802;4.336;2024-03-22T08:58:55;17.40;;;13.73;;
14470;SDS011;7321;50.802;4.336;2024-03-22T09:01:21;18.43;;;14.87;;
14470;SDS011;7321;50.802;4.336;2024-03-22T09:03:47;21.63;;;15.30;;
14470;SDS011;7321;50.802;4.336;2024-03-22T09:06:16;20.37;;;14.97;;
14470;SDS011;7321;50.802;4.336;2024-03-22T09:08:42;22.07;;;15.27;;
14470;SDS011;7321;50.802;4.336;2024-03-22T09:11:08;22.27;;;14.57;;
14470;SDS011;7321;50.802;4.336;2024-03-22T09:13:34;20.37;;;15.97;;
14470;SDS011;7321;50.802;4.336;2024-03-22T09:16:00;22.40;;;14.87;;
14470;SDS011;7321;50.802;4.336;2024-03-22T09:18:27;21.63;;;15.63;;
14470;SDS011;7321;50.802;4.336;2024-03-22T09:20:53;21.47;;;14.30;;
14470;SDS011;7321;50.802;4.336;2024-03-22T09:23:20;21.37;;;15.00;;
14470;SDS011;7321;50.802;4.336;2024-03-22T09:25:46;20.40;;;14.53;;
14470;SDS011;7321;50.802;4.336;2024-03-22T09:28:12;23.40;;;16.17;;
14470;SDS011;7321;50.802;4.336;2024-03-22T09:30:39;21.47;;;14.70;;
14470;SDS011;7321;50.802;4.336;2024-03-22T09:33:05;24.37;;;15.43;;
14470;SDS011;7321;50.802;4.336;2024-03-22T09:35:35;22.23;;;15.97;;
14470;SDS011;7321;50.802;4.336;2024-03-22T09:38:01;23.87;;;15.43;;
14470;SDS011;7321;50.802;4.336;2024-03-22T09:40:30;21.93;;;14.67;;
14470;SDS011;7321;50.802;4.336;2024-03-22T09:42:59;19.53;;;15.73;;
14470;SDS011;7321;50.802;4.336;2024-03-22T09:45:31;22.00;;;15.77;;
14470;SDS011;7321;50.802;4.336;2024-03-22T09:47:57;20.43;;;16.20;;
14470;SDS011;7321;50.802;4.336;2024-03-22T09:50:23;26.50;;;17.23;;
14470;SDS011;7321;50.802;4.336;2024-03-22T09:52:51;23.30;;;16.33;;
14470;SDS011;7321;50.802;4.336;2024-03-22T09:55:20;18.47;;;15.43;;
14470;SDS011;7321;50.802;4.336;2024-03-22T09:57:48;21.37;;;15.93;;
14470;SDS011;7321;50.802;4.336;2024-03-22T10:00:16;23.20;;;16.07;;
14470;SDS011;7321;50.802;4.336;2024-03-22T10:02:48;20.67;;;16.30;;
14470;SDS011;7321;50.802;4.336;2024-03-22T10:05:15;20.03;;;15.90;;
14470;SDS011;7321;50.802;4.336;2024-03-22T10:07:43;22.97;;;15.77;;
14470;SDS011;7321;50.802;4.336;2024-03-22T10:10:09;20.27;;;15.57;;
14470;SDS011;7321;50.802;4.336;2024-03-22T10:12:35;21.30;;;14.97;;
14470;SDS011;7321;50.802;4.336;2024-03-22T10:15:02;19.13;;;14.80;;
14470;SDS011;7321;50.802;4.336;2024-03-22T10:17:30;16.77;;;13.73;;
14470;SDS011;7321;50.802;4.336;2024-03-22T10:19:56;19.77;;;14.33;;
14470;SDS011;7321;50.802;4.336;2024-03-22T10:22:22;18.17;;;13.77;;
14470;SDS011;7321;50.802;4.336;2024-03-22T10:24:50;17.47;;;13.73;;
14470;SDS011;7321;50.802;4.336;2024-03-22T10:27:16;15.80;;;13.67;;
14470;SDS011;7321;50.802;4.336;2024-03-22T10:29:43;18.27;;;13.00;;
14470;SDS011;7321;50.802;4.336;2024-03-22T10:32:10;17.23;;;13.03;;
14470;SDS011;7321;50.802;4.336;2024-03-22T10:34:37;17.00;;;14.13;;
14470;SDS011;7321;50.802;4.336;2024-03-22T10:37:04;17.97;;;13.90;;
14470;SDS011;7321;50.802;4.336;2024-03-22T10:39:33;16.87;;;13.30;;
14470;SDS011;7321;50.802;4.336;2024-03-22T10:42:00;17.20;;;13.40;;
14470;SDS011;7321;50.802;4.336;2024-03-22T10:44:26;20.03;;;14.67;;
14470;SDS011;7321;50.802;4.336;2024-03-22T10:46:52;18.40;;;14.43;;
14470;SDS011;7321;50.802;4.336;2024-03-22T10:49:24;16.40;;;13.20;;
14470;SDS011;7321;50.802;4.336;2024-03-22T10:51:58;17.30;;;13.47;;
14470;SDS011;7321;50.802;4.336;2024-03-22T10:54:45;16.90;;;13.83;;
14470;SDS011;7321;50.802;4.336;2024-03-22T10:57:13;18.20;;;13.57;;
14470;SDS011;7321;50.802;4.336;2024-03-22T10:59:41;18.20;;;13.73;;
14470;SDS011;7321;50.802;4.336;2024-03-22T11:02:10;19.77;;;13.67;;
14470;SDS011;7321;50.802;4.336;2024-03-22T11:04:36;16.77;;;13.40;;
14470;SDS011;7321;50.802;4.336;2024-03-22T11:07:05;15.33;;;12.37;;
14470;SDS011;7321;50.802;4.336;2024-03-22T11:09:35;19.43;;;14.63;;
14470;SDS011;7321;50.802;4.336;2024-03-22T11:12:01;17.33;;;13.30;;
14470;SDS011;7321;50.802;4.336;2024-03-22T11:14:29;15.93;;;13.67;;
14470;SDS011;7321;50.802;4.336;2024-03-22T11:16:55;17.80;;;13.73;;
14470;SDS011;7321;50.802;4.336;2024-03-22T11:19:21;19.60;;;13.27;;
14470;SDS011;7321;50.802;4.336;2024-03-22T11:21:46;16.57;;;13.03;;
14470;SDS011;7321;50.802;4.336;2024-03-22T11:24:12;15.67;;;13.53;;
14470;SDS011;7321;50.802;4.336;2024-03-22T11:26:38;18.77;;;13.07;;
14470;SDS011;7321;50.802;4.336;2024-03-22T11:29:04;15.97;;;13.10;;
14470;SDS011;7321;50.802;4.336;2024-03-22T11:31:32;17.87;;;12.40;;
14470;SDS011;7321;50.802;4.336;2024-03-22T11:33:58;15.60;;;13.40;;
14470;SDS011;7321;50.802;4.336;2024-03-22T11:36:25;14.30;;;12.80;;
14470;SDS011;7321;50.802;4.336;2024-03-22T11:38:51;15.17;;;11.97;;
14470;SDS011;7321;50.802;4.336;2024-03-22T11:41:20;18.60;;;12.67;;
14470;SDS011;7321;50.802;4.336;2024-03-22T11:43:52;14.67;;;12.80;;
14470;SDS011;7321;50.802;4.336;2024-03-22T11:46:19;15.53;;;12.07;;
14470;SDS011;7321;50.802;4.336;2024-03-22T11:48:50;17.40;;;12.43;;
14470;SDS011;7321;50.802;4.336;2024-03-22T11:51:20;17.87;;;13.67;;
14470;SDS011;7321;50.802;4.336;2024-03-22T11:53:50;17.33;;;12.47;;
14470;SDS011;7321;50.802;4.336;2024-03-22T11:56:21;15.70;;;12.33;;
14470;SDS011;7321;50.802;4.336;2024-03-22T11:58:47;16.83;;;13.17;;
14470;SDS011;7321;50.802;4.336;2024-03-22T12:01:17;19.60;;;13.43;;
14470;SDS011;7321;50.802;4.336;2024-03-22T12:03:46;15.63;;;12.33;;
14470;SDS011;7321;50.802;4.336;2024-03-22T12:06:12;17.30;;;13.43;;
14470;SDS011;7321;50.802;4.336;2024-03-22T12:08:38;18.37;;;13.20;;
14470;SDS011;7321;50.802;4.336;2024-03-22T12:11:09;18.60;;;13.60;;
14470;SDS011;7321;50.802;4.336;2024-03-22T12:13:35;18.43;;;13.73;;
14470;SDS011;7321;50.802;4.336;2024-03-22T12:16:03;17.07;;;14.43;;
14470;SDS011;7321;50.802;4.336;2024-03-22T12:18:30;17.50;;;14.10;;
14470;SDS011;7321;50.802;4.336;2024-03-22T12:20:56;19.03;;;14.03;;
14470;SDS011;7321;50.802;4.336;2024-03-22T12:23:21;17.57;;;12.43;;
14470;SDS011;7321;50.802;4.336;2024-03-22T12:25:49;20.90;;;14.07;;
14470;SDS011;7321;50.802;4.336;2024-03-22T12:28:22;19.80;;;13.17;;
14470;SDS011;7321;50.802;4.336;2024-03-22T12:30:51;17.00;;;12.93;;
14470;SDS011;7321;50.802;4.336;2024-03-22T12:33:17;15.00;;;12.77;;
14470;SDS011;7321;50.802;4.336;2024-03-22T12:35:44;18.40;;;13.93;;
14470;SDS011;7321;50.802;4.336;2024-03-22T12:38:14;19.97;;;13.53;;
14470;SDS011;7321;50.802;4.336;2024-03-22T12:43:09;19.30;;;13.37;;
14470;SDS011;7321;50.802;4.336;2024-03-22T12:45:37;19.80;;;13.77;;
14470;SDS011;7321;50.802;4.336;2024-03-22T12:48:03;15.93;;;12.83;;
14470;SDS011;7321;50.802;4.336;2024-03-22T12:50:29;14.73;;;12.03;;
14470;SDS011;7321;50.802;4.336;2024-03-22T12:52:56;16.97;;;12.97;;
14470;SDS011;7321;50.802;4.336;2024-03-22T12:55:22;20.03;;;12.53;;
14470;SDS011;7321;50.802;4.336;2024-03-22T12:57:48;12.67;;;10.90;;
14470;SDS011;7321;50.802;4.336;2024-03-22T13:00:14;16.53;;;11.57;;
14470;SDS011;7321;50.802;4.336;2024-03-22T13:02:49;18.83;;;11.40;;
14470;SDS011;7321;50.802;4.336;2024-03-22T13:05:15;16.37;;;11.57;;
14470;SDS011;7321;50.802;4.336;2024-03-22T13:07:42;19.50;;;12.37;;
14470;SDS011;7321;50.802;4.336;2024-03-22T13:10:08;17.40;;;11.67;;
14470;SDS011;7321;50.802;4.336;2024-03-22T13:12:34;14.63;;;10.83;;
14470;SDS011;7321;50.802;4.336;2024-03-22T13:15:00;18.80;;;11.47;;
14470;SDS011;7321;50.802;4.336;2024-03-22T13:17:27;13.37;;;10.80;;
14470;SDS011;7321;50.802;4.336;2024-03-22T13:19:53;20.10;;;11.33;;
14470;SDS011;7321;50.802;4.336;2024-03-22T13:22:19;13.60;;;10.37;;
14470;SDS011;7321;50.802;4.336;2024-03-22T13:24:48;17.43;;;10.97;;
14470;SDS011;7321;50.802;4.336;2024-03-22T13:27:15;14.53;;;10.30;;
14470;SDS011;7321;50.802;4.336;2024-03-22T13:29:42;15.47;;;10.73;;
14470;SDS011;7321;50.802;4.336;2024-03-22T13:32:08;14.40;;;11.20;;
14470;SDS011;7321;50.802;4.336;2024-03-22T13:34:37;17.47;;;11.90;;
14470;SDS011;7321;50.802;4.336;2024-03-22T13:37:03;15.80;;;11.63;;
14470;SDS011;7321;50.802;4.336;2024-03-22T13:39:31;17.33;;;12.20;;
14470;SDS011;7321;50.802;4.336;2024-03-22T13:42:01;16.13;;;12.07;;
14470;SDS011;7321;50.802;4.336;2024-03-22T13:44:31;14.87;;;11.30;;
14470;SDS011;7321;50.802;4.336;2024-03-22T13:47:01;17.60;;;11.70;;
14470;SDS011;7321;50.802;4.336;2024-03-22T13:49:30;20.03;;;12.03;;
14470;SDS011;7321;50.802;4.336;2024-03-22T13:51:59;14.37;;;12.20;;
14470;SDS011;7321;50.802;4.336;2024-03-22T13:54:30;17.87;;;12.03;;
14470;SDS011;7321;50.802;4.336;2024-03-22T13:56:56;16.73;;;12.33;;
14470;SDS011;7321;50.802;4.336;2024-03-22T13:59:22;16.77;;;11.63;;
14470;SDS011;7321;50.802;4.336;2024-03-22T14:01:48;15.03;;;11.93;;
14470;SDS011;7321;50.802;4.336;2024-03-22T14:04:14;13.23;;;11.80;;
14470;SDS011;7321;50.802;4.336;2024-03-22T14:06:40;14.07;;;11.83;;
14470;SDS011;7321;50.802;4.336;2024-03-22T14:09:09;15.43;;;11.70;;
14470;SDS011;7321;50.802;4.336;2024-03-22T14:11:38;21.27;;;12.23;;
14470;SDS011;7321;50.802;4.336;2024-03-22T14:14:04;15.13;;;12.47;;
14470;SDS011;7321;50.802;4.336;2024-03-22T14:16:32;13.63;;;11.30;;
14470;SDS011;7321;50.802;4.336;2024-03-22T14:18:59;16.73;;;12.30;;
14470;SDS011;7321;50.802;4.336;2024-03-22T14:21:26;17.53;;;11.90;;
14470;SDS011;7321;50.802;4.336;2024-03-22T14:23:52;14.50;;;11.30;;
14470;SDS011;7321;50.802;4.336;2024-03-22T14:26:18;19.13;;;11.50;;
14470;SDS011;7321;50.802;4.336;2024-03-22T14:28:44;15.77;;;9.93;;
14470;SDS011;7321;50.802;4.336;2024-03-22T14:31:12;12.67;;;9.40;;
14470;SDS011;7321;50.802;4.336;2024-03-22T14:33:39;17.17;;;9.97;;
14470;SDS011;7321;50.802;4.336;2024-03-22T14:36:06;15.67;;;9.60;;